Terminal Aerodrome Forecast
Issued by NWS Rapid City, SD

Home | Current Version | Previous Version | Text Only | Print | Product List | Glossary Off
Versions: 1 2 3 4 5 6 7 8 9 10 11 12 13 14 15 16 17

000
FTUS43 KUNR 152330
TAFRAP
TAF
KRAP 152330Z 1600/1624 34018G28KT P6SM -SHRA OVC040
     FM160500 34016G26KT P6SM -RA OVC020
     FM160900 34014G24KT 4SM -RA BR OVC008
     FM161600 35020G30KT P6SM -SHRA OVC020=

USA.gov is the U.S. government's official web portal to all federal, state and local government web resources and services.